sensor_id;sensor_type;location;lat;lon;timestamp;P1;durP1;ratioP1;P2;durP2;ratioP2
20067;SDS011;10194;50.824;7.134;2023-04-23T00:01:05;148.20;;;77.00;;
20067;SDS011;10194;50.824;7.134;2023-04-23T00:03:32;149.80;;;77.23;;
20067;SDS011;10194;50.824;7.134;2023-04-23T00:06:06;149.23;;;77.47;;
20067;SDS011;10194;50.824;7.134;2023-04-23T00:08:36;148.37;;;77.27;;
20067;SDS011;10194;50.824;7.134;2023-04-23T00:11:04;150.40;;;76.27;;
20067;SDS011;10194;50.824;7.134;2023-04-23T00:13:31;147.13;;;75.83;;
20067;SDS011;10194;50.824;7.134;2023-04-23T00:15:57;154.07;;;79.43;;
20067;SDS011;10194;50.824;7.134;2023-04-23T00:18:24;151.07;;;79.73;;
20067;SDS011;10194;50.824;7.134;2023-04-23T00:20:49;154.00;;;82.50;;
20067;SDS011;10194;50.824;7.134;2023-04-23T00:23:15;154.83;;;85.43;;
20067;SDS011;10194;50.824;7.134;2023-04-23T00:25:41;152.40;;;84.73;;
20067;SDS011;10194;50.824;7.134;2023-04-23T00:28:07;162.17;;;90.33;;
20067;SDS011;10194;50.824;7.134;2023-04-23T00:30:33;163.67;;;95.37;;
20067;SDS011;10194;50.824;7.134;2023-04-23T00:32:59;165.20;;;100.40;;
20067;SDS011;10194;50.824;7.134;2023-04-23T00:35:24;165.67;;;98.43;;
20067;SDS011;10194;50.824;7.134;2023-04-23T00:37:50;167.90;;;102.97;;
20067;SDS011;10194;50.824;7.134;2023-04-23T00:40:16;169.43;;;103.17;;
20067;SDS011;10194;50.824;7.134;2023-04-23T00:42:42;160.43;;;94.60;;
20067;SDS011;10194;50.824;7.134;2023-04-23T00:45:09;157.87;;;87.30;;
20067;SDS011;10194;50.824;7.134;2023-04-23T00:47:36;154.57;;;84.70;;
20067;SDS011;10194;50.824;7.134;2023-04-23T00:50:02;156.97;;;84.03;;
20067;SDS011;10194;50.824;7.134;2023-04-23T00:52:28;155.10;;;85.40;;
20067;SDS011;10194;50.824;7.134;2023-04-23T00:54:54;157.80;;;90.40;;
20067;SDS011;10194;50.824;7.134;2023-04-23T00:57:21;163.47;;;97.13;;
20067;SDS011;10194;50.824;7.134;2023-04-23T00:59:47;167.97;;;101.63;;
20067;SDS011;10194;50.824;7.134;2023-04-23T01:02:13;160.57;;;96.40;;
20067;SDS011;10194;50.824;7.134;2023-04-23T01:04:40;165.00;;;98.40;;
20067;SDS011;10194;50.824;7.134;2023-04-23T01:07:10;173.80;;;108.37;;
20067;SDS011;10194;50.824;7.134;2023-04-23T01:09:36;166.43;;;105.03;;
20067;SDS011;10194;50.824;7.134;2023-04-23T01:12:04;168.07;;;97.33;;
20067;SDS011;10194;50.824;7.134;2023-04-23T01:14:30;161.20;;;89.17;;
20067;SDS011;10194;50.824;7.134;2023-04-23T01:16:57;159.33;;;87.50;;
20067;SDS011;10194;50.824;7.134;2023-04-23T01:19:23;164.80;;;89.60;;
20067;SDS011;10194;50.824;7.134;2023-04-23T01:21:49;156.47;;;86.60;;
20067;SDS011;10194;50.824;7.134;2023-04-23T01:24:15;160.03;;;87.57;;
20067;SDS011;10194;50.824;7.134;2023-04-23T01:26:41;165.87;;;92.47;;
20067;SDS011;10194;50.824;7.134;2023-04-23T01:29:07;163.80;;;94.13;;
20067;SDS011;10194;50.824;7.134;2023-04-23T01:31:34;165.43;;;94.37;;
20067;SDS011;10194;50.824;7.134;2023-04-23T01:34:01;161.40;;;92.50;;
20067;SDS011;10194;50.824;7.134;2023-04-23T01:36:27;167.93;;;94.30;;
20067;SDS011;10194;50.824;7.134;2023-04-23T01:38:55;167.90;;;95.27;;
20067;SDS011;10194;50.824;7.134;2023-04-23T01:41:20;173.40;;;97.97;;
20067;SDS011;10194;50.824;7.134;2023-04-23T01:43:46;163.73;;;95.63;;
20067;SDS011;10194;50.824;7.134;2023-04-23T01:46:12;169.60;;;96.60;;
20067;SDS011;10194;50.824;7.134;2023-04-23T01:48:38;177.87;;;109.20;;
20067;SDS011;10194;50.824;7.134;2023-04-23T01:51:04;172.37;;;105.77;;
20067;SDS011;10194;50.824;7.134;2023-04-23T01:53:30;166.03;;;95.10;;
20067;SDS011;10194;50.824;7.134;2023-04-23T01:55:56;173.77;;;99.03;;
20067;SDS011;10194;50.824;7.134;2023-04-23T01:58:22;169.70;;;100.57;;
20067;SDS011;10194;50.824;7.134;2023-04-23T02:00:49;174.57;;;100.77;;
20067;SDS011;10194;50.824;7.134;2023-04-23T02:03:15;166.77;;;95.77;;
20067;SDS011;10194;50.824;7.134;2023-04-23T02:05:41;177.87;;;106.60;;
20067;SDS011;10194;50.824;7.134;2023-04-23T02:08:08;189.97;;;126.17;;
20067;SDS011;10194;50.824;7.134;2023-04-23T02:10:34;194.90;;;137.20;;
20067;SDS011;10194;50.824;7.134;2023-04-23T02:13:00;199.63;;;143.20;;
20067;SDS011;10194;50.824;7.134;2023-04-23T02:15:27;212.97;;;168.97;;
20067;SDS011;10194;50.824;7.134;2023-04-23T02:17:53;227.47;;;182.03;;
20067;SDS011;10194;50.824;7.134;2023-04-23T02:20:19;220.83;;;173.23;;
20067;SDS011;10194;50.824;7.134;2023-04-23T02:22:46;213.07;;;168.93;;
20067;SDS011;10194;50.824;7.134;2023-04-23T02:25:13;204.80;;;156.30;;
20067;SDS011;10194;50.824;7.134;2023-04-23T02:27:41;222.73;;;174.10;;
20067;SDS011;10194;50.824;7.134;2023-04-23T02:30:07;233.63;;;182.30;;
20067;SDS011;10194;50.824;7.134;2023-04-23T02:32:34;243.27;;;189.20;;
20067;SDS011;10194;50.824;7.134;2023-04-23T02:35:01;230.73;;;194.20;;
20067;SDS011;10194;50.824;7.134;2023-04-23T02:37:27;245.03;;;202.27;;
20067;SDS011;10194;50.824;7.134;2023-04-23T02:39:53;248.67;;;212.83;;
20067;SDS011;10194;50.824;7.134;2023-04-23T02:42:19;240.17;;;210.47;;
20067;SDS011;10194;50.824;7.134;2023-04-23T02:44:45;253.53;;;221.23;;
20067;SDS011;10194;50.824;7.134;2023-04-23T02:47:10;255.87;;;214.57;;
20067;SDS011;10194;50.824;7.134;2023-04-23T02:49:36;267.50;;;231.93;;
20067;SDS011;10194;50.824;7.134;2023-04-23T02:52:02;277.63;;;240.87;;
20067;SDS011;10194;50.824;7.134;2023-04-23T02:54:28;274.67;;;241.77;;
20067;SDS011;10194;50.824;7.134;2023-04-23T02:56:56;272.80;;;237.83;;
20067;SDS011;10194;50.824;7.134;2023-04-23T02:59:22;277.50;;;240.40;;
20067;SDS011;10194;50.824;7.134;2023-04-23T03:01:48;277.50;;;236.20;;
20067;SDS011;10194;50.824;7.134;2023-04-23T03:04:15;277.07;;;240.37;;
20067;SDS011;10194;50.824;7.134;2023-04-23T03:06:42;275.33;;;245.27;;
20067;SDS011;10194;50.824;7.134;2023-04-23T03:09:08;282.03;;;244.60;;
20067;SDS011;10194;50.824;7.134;2023-04-23T03:11:33;266.10;;;237.07;;
20067;SDS011;10194;50.824;7.134;2023-04-23T03:13:59;264.53;;;230.37;;
20067;SDS011;10194;50.824;7.134;2023-04-23T03:16:28;266.37;;;237.03;;
20067;SDS011;10194;50.824;7.134;2023-04-23T03:18:56;268.43;;;238.60;;
20067;SDS011;10194;50.824;7.134;2023-04-23T03:21:22;278.23;;;240.27;;
20067;SDS011;10194;50.824;7.134;2023-04-23T03:23:48;270.90;;;240.40;;
20067;SDS011;10194;50.824;7.134;2023-04-23T03:26:14;275.50;;;239.57;;
20067;SDS011;10194;50.824;7.134;2023-04-23T03:28:40;277.83;;;242.80;;
20067;SDS011;10194;50.824;7.134;2023-04-23T03:31:06;277.90;;;244.27;;
20067;SDS011;10194;50.824;7.134;2023-04-23T03:33:31;277.23;;;238.30;;
20067;SDS011;10194;50.824;7.134;2023-04-23T03:35:57;283.30;;;244.90;;
20067;SDS011;10194;50.824;7.134;2023-04-23T03:38:23;273.37;;;238.10;;
20067;SDS011;10194;50.824;7.134;2023-04-23T03:40:48;277.57;;;238.00;;
20067;SDS011;10194;50.824;7.134;2023-04-23T03:43:14;270.43;;;238.83;;
20067;SDS011;10194;50.824;7.134;2023-04-23T03:45:40;275.97;;;240.30;;
20067;SDS011;10194;50.824;7.134;2023-04-23T03:48:06;276.27;;;238.53;;
20067;SDS011;10194;50.824;7.134;2023-04-23T03:50:31;274.03;;;236.53;;
20067;SDS011;10194;50.824;7.134;2023-04-23T03:53:02;268.53;;;238.20;;
20067;SDS011;10194;50.824;7.134;2023-04-23T03:55:29;273.23;;;235.30;;
20067;SDS011;10194;50.824;7.134;2023-04-23T03:57:54;270.63;;;240.27;;
20067;SDS011;10194;50.824;7.134;2023-04-23T04:00:20;262.60;;;233.97;;
20067;SDS011;10194;50.824;7.134;2023-04-23T04:02:46;261.00;;;230.00;;
20067;SDS011;10194;50.824;7.134;2023-04-23T04:05:12;269.47;;;240.13;;
20067;SDS011;10194;50.824;7.134;2023-04-23T04:07:38;266.63;;;237.67;;
20067;SDS011;10194;50.824;7.134;2023-04-23T04:10:05;263.33;;;234.63;;
20067;SDS011;10194;50.824;7.134;2023-04-23T04:12:31;261.17;;;232.97;;
20067;SDS011;10194;50.824;7.134;2023-04-23T04:14:57;267.37;;;238.27;;
20067;SDS011;10194;50.824;7.134;2023-04-23T04:17:23;258.90;;;230.23;;
20067;SDS011;10194;50.824;7.134;2023-04-23T04:19:49;259.47;;;231.53;;
20067;SDS011;10194;50.824;7.134;2023-04-23T04:22:15;263.03;;;235.10;;
20067;SDS011;10194;50.824;7.134;2023-04-23T04:24:41;260.50;;;232.53;;
20067;SDS011;10194;50.824;7.134;2023-04-23T04:27:07;261.57;;;233.50;;
20067;SDS011;10194;50.824;7.134;2023-04-23T04:29:33;262.70;;;234.93;;
20067;SDS011;10194;50.824;7.134;2023-04-23T04:31:59;262.17;;;234.10;;
20067;SDS011;10194;50.824;7.134;2023-04-23T04:34:26;257.43;;;229.77;;
20067;SDS011;10194;50.824;7.134;2023-04-23T04:36:53;258.23;;;231.13;;
20067;SDS011;10194;50.824;7.134;2023-04-23T04:39:19;260.83;;;233.20;;
20067;SDS011;10194;50.824;7.134;2023-04-23T04:41:45;243.63;;;217.70;;
20067;SDS011;10194;50.824;7.134;2023-04-23T04:44:12;251.33;;;225.17;;
20067;SDS011;10194;50.824;7.134;2023-04-23T04:46:38;247.57;;;220.83;;
20067;SDS011;10194;50.824;7.134;2023-04-23T04:49:06;252.40;;;225.87;;
20067;SDS011;10194;50.824;7.134;2023-04-23T04:51:36;251.13;;;224.43;;
20067;SDS011;10194;50.824;7.134;2023-04-23T04:54:03;247.37;;;221.10;;
20067;SDS011;10194;50.824;7.134;2023-04-23T04:56:29;240.43;;;214.47;;
20067;SDS011;10194;50.824;7.134;2023-04-23T04:58:55;228.60;;;198.83;;
20067;SDS011;10194;50.824;7.134;2023-04-23T05:01:21;221.83;;;187.73;;
20067;SDS011;10194;50.824;7.134;2023-04-23T05:03:50;220.57;;;176.43;;
20067;SDS011;10194;50.824;7.134;2023-04-23T05:06:17;210.53;;;174.77;;
20067;SDS011;10194;50.824;7.134;2023-04-23T05:08:43;208.80;;;173.43;;
20067;SDS011;10194;50.824;7.134;2023-04-23T05:11:12;205.03;;;170.80;;
20067;SDS011;10194;50.824;7.134;2023-04-23T05:13:40;186.80;;;135.67;;
20067;SDS011;10194;50.824;7.134;2023-04-23T05:16:06;191.30;;;135.03;;
20067;SDS011;10194;50.824;7.134;2023-04-23T05:18:32;197.80;;;146.47;;
20067;SDS011;10194;50.824;7.134;2023-04-23T05:20:57;195.63;;;146.33;;
20067;SDS011;10194;50.824;7.134;2023-04-23T05:23:24;189.90;;;142.03;;
20067;SDS011;10194;50.824;7.134;2023-04-23T05:25:50;191.43;;;147.33;;
20067;SDS011;10194;50.824;7.134;2023-04-23T05:28:17;191.87;;;142.47;;
20067;SDS011;10194;50.824;7.134;2023-04-23T05:30:43;184.73;;;135.93;;
20067;SDS011;10194;50.824;7.134;2023-04-23T05:33:08;168.90;;;112.50;;
20067;SDS011;10194;50.824;7.134;2023-04-23T05:35:36;169.30;;;110.33;;
20067;SDS011;10194;50.824;7.134;2023-04-23T05:38:02;168.43;;;106.20;;
20067;SDS011;10194;50.824;7.134;2023-04-23T05:40:29;164.50;;;101.23;;
20067;SDS011;10194;50.824;7.134;2023-04-23T05:42:56;162.30;;;98.73;;
20067;SDS011;10194;50.824;7.134;2023-04-23T05:45:22;160.97;;;98.77;;
20067;SDS011;10194;50.824;7.134;2023-04-23T05:47:48;162.53;;;99.67;;
20067;SDS011;10194;50.824;7.134;2023-04-23T05:50:15;166.47;;;103.40;;
20067;SDS011;10194;50.824;7.134;2023-04-23T05:52:41;174.30;;;120.27;;
20067;SDS011;10194;50.824;7.134;2023-04-23T05:55:07;167.30;;;105.77;;
20067;SDS011;10194;50.824;7.134;2023-04-23T05:57:35;169.00;;;106.80;;
20067;SDS011;10194;50.824;7.134;2023-04-23T06:00:02;163.70;;;96.50;;
20067;SDS011;10194;50.824;7.134;2023-04-23T06:02:29;159.13;;;92.63;;
20067;SDS011;10194;50.824;7.134;2023-04-23T06:04:57;153.03;;;87.53;;
20067;SDS011;10194;50.824;7.134;2023-04-23T06:07:23;149.23;;;83.57;;
20067;SDS011;10194;50.824;7.134;2023-04-23T06:09:49;148.77;;;81.10;;
20067;SDS011;10194;50.824;7.134;2023-04-23T06:12:15;149.33;;;81.90;;
20067;SDS011;10194;50.824;7.134;2023-04-23T06:14:42;149.87;;;81.23;;
20067;SDS011;10194;50.824;7.134;2023-04-23T06:17:07;148.13;;;82.40;;
20067;SDS011;10194;50.824;7.134;2023-04-23T06:19:33;152.87;;;83.43;;
20067;SDS011;10194;50.824;7.134;2023-04-23T06:21:59;147.57;;;80.87;;
20067;SDS011;10194;50.824;7.134;2023-04-23T06:24:25;147.03;;;79.43;;
20067;SDS011;10194;50.824;7.134;2023-04-23T06:26:51;145.70;;;79.43;;
20067;SDS011;10194;50.824;7.134;2023-04-23T06:29:16;148.70;;;79.17;;
20067;SDS011;10194;50.824;7.134;2023-04-23T06:31:42;148.60;;;82.20;;
20067;SDS011;10194;50.824;7.134;2023-04-23T06:34:08;142.53;;;77.43;;
20067;SDS011;10194;50.824;7.134;2023-04-23T06:36:33;143.57;;;77.47;;
20067;SDS011;10194;50.824;7.134;2023-04-23T06:38:59;147.93;;;78.30;;
20067;SDS011;10194;50.824;7.134;2023-04-23T06:41:25;142.47;;;76.03;;
20067;SDS011;10194;50.824;7.134;2023-04-23T06:43:51;140.37;;;75.03;;
20067;SDS011;10194;50.824;7.134;2023-04-23T06:46:16;140.10;;;75.33;;
20067;SDS011;10194;50.824;7.134;2023-04-23T06:48:42;140.60;;;74.87;;
20067;SDS011;10194;50.824;7.134;2023-04-23T06:51:08;142.07;;;75.47;;
20067;SDS011;10194;50.824;7.134;2023-04-23T06:53:34;139.43;;;73.63;;
20067;SDS011;10194;50.824;7.134;2023-04-23T06:56:00;141.37;;;74.20;;
20067;SDS011;10194;50.824;7.134;2023-04-23T06:58:26;140.93;;;74.30;;
20067;SDS011;10194;50.824;7.134;2023-04-23T07:00:58;140.77;;;72.90;;
20067;SDS011;10194;50.824;7.134;2023-04-23T07:03:26;138.67;;;74.03;;
20067;SDS011;10194;50.824;7.134;2023-04-23T07:05:52;138.07;;;73.23;;
20067;SDS011;10194;50.824;7.134;2023-04-23T07:08:18;140.50;;;73.67;;
20067;SDS011;10194;50.824;7.134;2023-04-23T07:10:47;140.63;;;74.10;;
20067;SDS011;10194;50.824;7.134;2023-04-23T07:13:13;136.30;;;72.40;;
20067;SDS011;10194;50.824;7.134;2023-04-23T07:15:40;140.67;;;73.83;;
20067;SDS011;10194;50.824;7.134;2023-04-23T07:18:07;141.13;;;73.60;;
20067;SDS011;10194;50.824;7.134;2023-04-23T07:20:33;140.40;;;73.63;;
20067;SDS011;10194;50.824;7.134;2023-04-23T07:22:59;138.30;;;73.60;;
20067;SDS011;10194;50.824;7.134;2023-04-23T07:25:27;138.07;;;72.90;;
20067;SDS011;10194;50.824;7.134;2023-04-23T07:27:53;138.20;;;73.67;;
20067;SDS011;10194;50.824;7.134;2023-04-23T07:30:22;138.07;;;73.27;;
20067;SDS011;10194;50.824;7.134;2023-04-23T07:32:49;137.63;;;74.03;;
20067;SDS011;10194;50.824;7.134;2023-04-23T07:35:15;138.20;;;73.73;;
20067;SDS011;10194;50.824;7.134;2023-04-23T07:37:41;140.90;;;74.57;;
20067;SDS011;10194;50.824;7.134;2023-04-23T07:40:07;139.97;;;76.57;;
20067;SDS011;10194;50.824;7.134;2023-04-23T07:42:33;139.73;;;76.63;;
20067;SDS011;10194;50.824;7.134;2023-04-23T07:44:59;137.97;;;76.40;;
20067;SDS011;10194;50.824;7.134;2023-04-23T07:47:25;140.57;;;76.23;;
20067;SDS011;10194;50.824;7.134;2023-04-23T07:49:51;136.47;;;75.60;;
20067;SDS011;10194;50.824;7.134;2023-04-23T07:52:16;137.30;;;74.50;;
20067;SDS011;10194;50.824;7.134;2023-04-23T07:54:42;138.10;;;74.87;;
20067;SDS011;10194;50.824;7.134;2023-04-23T07:57:09;137.37;;;74.00;;
20067;SDS011;10194;50.824;7.134;2023-04-23T07:59:35;142.03;;;75.97;;
20067;SDS011;10194;50.824;7.134;2023-04-23T08:02:03;141.67;;;75.73;;
20067;SDS011;10194;50.824;7.134;2023-04-23T08:04:30;139.00;;;74.53;;
20067;SDS011;10194;50.824;7.134;2023-04-23T08:06:56;137.50;;;74.03;;
20067;SDS011;10194;50.824;7.134;2023-04-23T08:09:22;146.37;;;77.50;;
20067;SDS011;10194;50.824;7.134;2023-04-23T08:11:48;138.27;;;73.63;;
20067;SDS011;10194;50.824;7.134;2023-04-23T08:14:14;137.97;;;73.93;;
20067;SDS011;10194;50.824;7.134;2023-04-23T08:16:40;146.97;;;77.67;;
20067;SDS011;10194;50.824;7.134;2023-04-23T08:19:06;136.07;;;74.00;;
20067;SDS011;10194;50.824;7.134;2023-04-23T08:21:32;138.63;;;75.03;;
20067;SDS011;10194;50.824;7.134;2023-04-23T08:23:58;138.17;;;73.63;;
20067;SDS011;10194;50.824;7.134;2023-04-23T08:26:24;136.27;;;73.53;;
20067;SDS011;10194;50.824;7.134;2023-04-23T08:28:50;137.30;;;74.33;;
20067;SDS011;10194;50.824;7.134;2023-04-23T08:31:16;136.73;;;73.93;;
20067;SDS011;10194;50.824;7.134;2023-04-23T08:33:42;136.47;;;73.67;;
20067;SDS011;10194;50.824;7.134;2023-04-23T08:36:07;136.00;;;73.33;;
20067;SDS011;10194;50.824;7.134;2023-04-23T08:38:33;137.57;;;74.23;;
20067;SDS011;10194;50.824;7.134;2023-04-23T08:40:59;136.30;;;73.67;;
20067;SDS011;10194;50.824;7.134;2023-04-23T08:43:30;137.63;;;74.23;;
20067;SDS011;10194;50.824;7.134;2023-04-23T08:46:02;135.43;;;73.23;;
20067;SDS011;10194;50.824;7.134;2023-04-23T08:48:28;135.47;;;74.10;;
20067;SDS011;10194;50.824;7.134;2023-04-23T08:50:55;135.47;;;73.67;;
20067;SDS011;10194;50.824;7.134;2023-04-23T08:53:22;137.80;;;73.93;;
20067;SDS011;10194;50.824;7.134;2023-04-23T08:55:52;134.97;;;73.53;;
20067;SDS011;10194;50.824;7.134;2023-04-23T08:58:20;137.70;;;74.73;;
20067;SDS011;10194;50.824;7.134;2023-04-23T09:00:48;138.83;;;75.17;;
20067;SDS011;10194;50.824;7.134;2023-04-23T09:03:17;135.30;;;74.20;;
20067;SDS011;10194;50.824;7.134;2023-04-23T09:05:44;137.20;;;74.67;;
20067;SDS011;10194;50.824;7.134;2023-04-23T09:08:11;137.90;;;74.07;;
20067;SDS011;10194;50.824;7.134;2023-04-23T09:10:38;135.53;;;74.57;;
20067;SDS011;10194;50.824;7.134;2023-04-23T09:13:07;139.40;;;75.77;;
20067;SDS011;10194;50.824;7.134;2023-04-23T09:15:33;138.87;;;74.83;;
20067;SDS011;10194;50.824;7.134;2023-04-23T09:18:02;139.13;;;76.23;;
20067;SDS011;10194;50.824;7.134;2023-04-23T09:20:28;136.60;;;75.50;;
20067;SDS011;10194;50.824;7.134;2023-04-23T09:22:54;136.77;;;75.37;;
20067;SDS011;10194;50.824;7.134;2023-04-23T09:25:21;136.83;;;75.30;;
20067;SDS011;10194;50.824;7.134;2023-04-23T09:27:48;138.70;;;76.10;;
20067;SDS011;10194;50.824;7.134;2023-04-23T09:30:16;137.57;;;75.83;;
20067;SDS011;10194;50.824;7.134;2023-04-23T09:32:44;136.87;;;75.97;;
20067;SDS011;10194;50.824;7.134;2023-04-23T09:35:15;137.33;;;75.70;;
20067;SDS011;10194;50.824;7.134;2023-04-23T09:37:45;136.73;;;76.23;;
20067;SDS011;10194;50.824;7.134;2023-04-23T09:40:16;140.60;;;76.43;;
20067;SDS011;10194;50.824;7.134;2023-04-23T09:42:47;135.53;;;75.50;;
20067;SDS011;10194;50.824;7.134;2023-04-23T09:45:16;139.83;;;76.30;;
20067;SDS011;10194;50.824;7.134;2023-04-23T09:47:50;134.97;;;75.67;;
20067;SDS011;10194;50.824;7.134;2023-04-23T09:50:33;135.43;;;75.90;;
20067;SDS011;10194;50.824;7.134;2023-04-23T09:53:03;137.33;;;77.37;;
20067;SDS011;10194;50.824;7.134;2023-04-23T09:55:32;138.90;;;77.97;;
20067;SDS011;10194;50.824;7.134;2023-04-23T09:58:02;137.73;;;77.53;;
20067;SDS011;10194;50.824;7.134;2023-04-23T10:00:33;138.57;;;78.07;;
20067;SDS011;10194;50.824;7.134;2023-04-23T10:03:01;138.60;;;79.73;;
20067;SDS011;10194;50.824;7.134;2023-04-23T10:05:27;138.87;;;78.63;;
20067;SDS011;10194;50.824;7.134;2023-04-23T10:07:54;140.20;;;78.97;;
20067;SDS011;10194;50.824;7.134;2023-04-23T10:10:21;138.53;;;78.47;;
20067;SDS011;10194;50.824;7.134;2023-04-23T10:12:49;138.17;;;78.83;;
20067;SDS011;10194;50.824;7.134;2023-04-23T10:15:22;142.43;;;80.23;;
20067;SDS011;10194;50.824;7.134;2023-04-23T10:17:50;139.57;;;80.90;;
20067;SDS011;10194;50.824;7.134;2023-04-23T10:20:17;142.33;;;80.77;;
20067;SDS011;10194;50.824;7.134;2023-04-23T10:22:47;140.53;;;79.13;;
20067;SDS011;10194;50.824;7.134;2023-04-23T10:25:13;140.80;;;79.00;;
20067;SDS011;10194;50.824;7.134;2023-04-23T10:27:43;140.30;;;79.30;;
20067;SDS011;10194;50.824;7.134;2023-04-23T10:30:12;142.47;;;82.80;;
20067;SDS011;10194;50.824;7.134;2023-04-23T10:32:38;140.30;;;80.17;;
20067;SDS011;10194;50.824;7.134;2023-04-23T10:35:06;139.83;;;81.70;;
20067;SDS011;10194;50.824;7.134;2023-04-23T10:37:34;139.77;;;80.70;;
20067;SDS011;10194;50.824;7.134;2023-04-23T10:40:05;143.63;;;83.10;;
20067;SDS011;10194;50.824;7.134;2023-04-23T10:42:41;141.20;;;80.53;;
20067;SDS011;10194;50.824;7.134;2023-04-23T10:45:14;140.47;;;79.70;;
20067;SDS011;10194;50.824;7.134;2023-04-23T10:47:43;138.20;;;78.97;;
20067;SDS011;10194;50.824;7.134;2023-04-23T10:52:48;136.50;;;75.80;;
20067;SDS011;10194;50.824;7.134;2023-04-23T10:55:19;137.53;;;77.03;;
20067;SDS011;10194;50.824;7.134;2023-04-23T10:58:03;135.63;;;75.70;;
20067;SDS011;10194;50.824;7.134;2023-04-23T11:06:04;136.47;;;75.63;;
20067;SDS011;10194;50.824;7.134;2023-04-23T11:08:31;135.73;;;75.53;;
20067;SDS011;10194;50.824;7.134;2023-04-23T11:11:00;135.10;;;74.30;;
20067;SDS011;10194;50.824;7.134;2023-04-23T11:13:31;137.53;;;75.47;;
20067;SDS011;10194;50.824;7.134;2023-04-23T11:16:42;135.67;;;75.07;;
20067;SDS011;10194;50.824;7.134;2023-04-23T11:19:00;139.87;;;77.30;;
20067;SDS011;10194;50.824;7.134;2023-04-23T11:24:28;137.73;;;76.77;;
20067;SDS011;10194;50.824;7.134;2023-04-23T11:27:06;138.10;;;78.10;;
20067;SDS011;10194;50.824;7.134;2023-04-23T11:29:38;140.20;;;79.43;;
20067;SDS011;10194;50.824;7.134;2023-04-23T11:32:07;139.03;;;79.20;;
20067;SDS011;10194;50.824;7.134;2023-04-23T11:34:44;136.97;;;78.87;;
20067;SDS011;10194;50.824;7.134;2023-04-23T11:37:12;143.10;;;80.83;;
20067;SDS011;10194;50.824;7.134;2023-04-23T11:39:39;138.67;;;78.20;;
20067;SDS011;10194;50.824;7.134;2023-04-23T11:42:11;139.40;;;78.67;;
20067;SDS011;10194;50.824;7.134;2023-04-23T11:44:41;140.17;;;79.90;;
20067;SDS011;10194;50.824;7.134;2023-04-23T11:47:10;139.37;;;78.77;;
20067;SDS011;10194;50.824;7.134;2023-04-23T11:49:41;139.60;;;78.90;;
20067;SDS011;10194;50.824;7.134;2023-04-23T11:52:08;142.37;;;79.20;;
20067;SDS011;10194;50.824;7.134;2023-04-23T11:54:34;137.67;;;76.67;;
20067;SDS011;10194;50.824;7.134;2023-04-23T11:57:00;137.90;;;77.20;;
20067;SDS011;10194;50.824;7.134;2023-04-23T11:59:28;144.60;;;79.27;;
20067;SDS011;10194;50.824;7.134;2023-04-23T12:01:55;137.70;;;77.30;;
20067;SDS011;10194;50.824;7.134;2023-04-23T12:06:51;137.70;;;76.33;;
20067;SDS011;10194;50.824;7.134;2023-04-23T12:09:19;138.87;;;76.80;;
20067;SDS011;10194;50.824;7.134;2023-04-23T12:11:47;135.97;;;75.33;;
20067;SDS011;10194;50.824;7.134;2023-04-23T12:14:17;137.63;;;75.67;;
20067;SDS011;10194;50.824;7.134;2023-04-23T12:16:48;136.97;;;74.83;;
20067;SDS011;10194;50.824;7.134;2023-04-23T12:19:20;140.97;;;75.60;;
20067;SDS011;10194;50.824;7.134;2023-04-23T12:21:51;136.37;;;74.70;;
20067;SDS011;10194;50.824;7.134;2023-04-23T12:24:44;136.87;;;74.93;;
20067;SDS011;10194;50.824;7.134;2023-04-23T12:27:13;138.23;;;76.97;;
20067;SDS011;10194;50.824;7.134;2023-04-23T12:29:40;138.63;;;75.13;;
20067;SDS011;10194;50.824;7.134;2023-04-23T12:32:09;142.33;;;74.40;;
20067;SDS011;10194;50.824;7.134;2023-04-23T12:34:36;135.80;;;74.30;;
20067;SDS011;10194;50.824;7.134;2023-04-23T12:37:04;135.03;;;74.73;;
20067;SDS011;10194;50.824;7.134;2023-04-23T12:39:32;142.83;;;77.53;;
20067;SDS011;10194;50.824;7.134;2023-04-23T12:44:30;136.77;;;73.63;;
20067;SDS011;10194;50.824;7.134;2023-04-23T12:47:02;136.87;;;75.23;;
20067;SDS011;10194;50.824;7.134;2023-04-23T12:49:31;141.77;;;76.30;;
20067;SDS011;10194;50.824;7.134;2023-04-23T12:51:59;135.23;;;74.27;;
20067;SDS011;10194;50.824;7.134;2023-04-23T12:54:27;134.53;;;75.53;;
20067;SDS011;10194;50.824;7.134;2023-04-23T12:56:56;136.70;;;74.90;;
20067;SDS011;10194;50.824;7.134;2023-04-23T12:59:23;150.63;;;77.87;;
20067;SDS011;10194;50.824;7.134;2023-04-23T13:01:49;138.93;;;76.77;;
20067;SDS011;10194;50.824;7.134;2023-04-23T13:04:15;141.97;;;74.67;;
20067;SDS011;10194;50.824;7.134;2023-04-23T13:06:41;139.37;;;75.87;;
20067;SDS011;10194;50.824;7.134;2023-04-23T13:09:08;155.80;;;75.70;;
20067;SDS011;10194;50.824;7.134;2023-04-23T13:11:38;136.63;;;74.27;;
20067;SDS011;10194;50.824;7.134;2023-04-23T13:14:04;145.27;;;75.00;;
20067;SDS011;10194;50.824;7.134;2023-04-23T13:16:31;136.70;;;74.30;;
20067;SDS011;10194;50.824;7.134;2023-04-23T13:18:58;135.67;;;74.40;;
20067;SDS011;10194;50.824;7.134;2023-04-23T13:21:25;134.37;;;74.23;;
20067;SDS011;10194;50.824;7.134;2023-04-23T13:23:51;135.97;;;75.23;;
20067;SDS011;10194;50.824;7.134;2023-04-23T13:26:17;136.17;;;74.20;;
20067;SDS011;10194;50.824;7.134;2023-04-23T13:28:43;134.47;;;74.57;;
20067;SDS011;10194;50.824;7.134;2023-04-23T13:31:09;136.17;;;74.77;;
20067;SDS011;10194;50.824;7.134;2023-04-23T13:33:38;136.00;;;74.83;;
20067;SDS011;10194;50.824;7.134;2023-04-23T13:36:05;134.97;;;75.17;;
20067;SDS011;10194;50.824;7.134;2023-04-23T13:38:31;136.30;;;76.13;;
20067;SDS011;10194;50.824;7.134;2023-04-23T13:40:57;146.83;;;74.37;;
20067;SDS011;10194;50.824;7.134;2023-04-23T13:43:23;137.97;;;74.67;;
20067;SDS011;10194;50.824;7.134;2023-04-23T13:45:49;135.77;;;74.23;;
20067;SDS011;10194;50.824;7.134;2023-04-23T13:48:16;134.40;;;72.77;;
20067;SDS011;10194;50.824;7.134;2023-04-23T13:50:42;135.87;;;73.80;;
20067;SDS011;10194;50.824;7.134;2023-04-23T13:53:09;132.63;;;72.13;;
20067;SDS011;10194;50.824;7.134;2023-04-23T13:55:36;135.13;;;72.47;;
20067;SDS011;10194;50.824;7.134;2023-04-23T13:58:02;133.23;;;71.33;;
20067;SDS011;10194;50.824;7.134;2023-04-23T14:00:29;134.90;;;71.13;;
20067;SDS011;10194;50.824;7.134;2023-04-23T14:02:55;135.07;;;71.30;;
20067;SDS011;10194;50.824;7.134;2023-04-23T14:05:21;135.80;;;71.30;;
20067;SDS011;10194;50.824;7.134;2023-04-23T14:07:47;138.07;;;71.73;;
20067;SDS011;10194;50.824;7.134;2023-04-23T14:10:13;136.87;;;70.90;;
20067;SDS011;10194;50.824;7.134;2023-04-23T14:12:42;140.40;;;71.90;;
20067;SDS011;10194;50.824;7.134;2023-04-23T14:15:10;138.40;;;71.80;;
20067;SDS011;10194;50.824;7.134;2023-04-23T14:17:36;135.77;;;70.90;;
20067;SDS011;10194;50.824;7.134;2023-04-23T14:20:04;142.20;;;73.30;;
20067;SDS011;10194;50.824;7.134;2023-04-23T14:22:31;136.47;;;71.80;;